BAW331 LFMN-EGLL
Flight info
| Callsign | BAW331 |
|---|---|
| Flight time | 1h 37m |
| Altitude | 36000 |
| Route | BADO8X BADOD NEDRU LTP BULOL IDAVO BAGBI SIZZA LAULY BRY CLM KOPOR ABNUR DIMAL ALESO ALES1H |
| Aircraft | A20N/M-SDE3FGHIRWY/LB1 |
Departure
| Time | 2026-05-06 15:18 |
|---|---|
| Airport | Nice-Côte d'Azur Airport (LFMN) |
Arrival
| Time | 2026-05-06 16:55 |
|---|---|
| Airport | London Heathrow Airport (EGLL) |
| Time | Latitude | Longitude | Altitude | Speed | Heading |
|---|---|---|---|---|---|
| 2026-05-06 15:02 | 43.66412 | 7.21226 | 26 ft | 0 kts | 350° |
| 2026-05-06 15:08 | 43.66396 | 7.21229 | 26 ft | 4 kts | 355° |
| 2026-05-06 15:09 | 43.66369 | 7.21229 | 26 ft | 4 kts | 9° |
| 2026-05-06 15:09 | 43.66345 | 7.21218 | 26 ft | 4 kts | 42° |
| 2026-05-06 15:09 | 43.66335 | 7.21200 | 26 ft | 0 kts | 80° |
| 2026-05-06 15:12 | 43.66336 | 7.21203 | 26 ft | 1 kts | 80° |
| 2026-05-06 15:12 | 43.66338 | 7.21225 | 26 ft | 3 kts | 80° |
| 2026-05-06 15:13 | 43.66344 | 7.21267 | 26 ft | 6 kts | 80° |
| 2026-05-06 15:13 | 43.66352 | 7.21330 | 26 ft | 8 kts | 80° |
| 2026-05-06 15:13 | 43.66362 | 7.21414 | 26 ft | 10 kts | 80° |
| 2026-05-06 15:13 | 43.66373 | 7.21518 | 26 ft | 12 kts | 91° |
| 2026-05-06 15:14 | 43.66323 | 7.21610 | 26 ft | 13 kts | 120° |
| 2026-05-06 15:14 | 43.66365 | 7.21709 | 26 ft | 14 kts | 43° |
| 2026-05-06 15:14 | 43.66438 | 7.21811 | 26 ft | 16 kts | 45° |
| 2026-05-06 15:14 | 43.66523 | 7.21925 | 26 ft | 18 kts | 44° |
| 2026-05-06 15:15 | 43.66542 | 7.22042 | 26 ft | 11 kts | 133° |
| 2026-05-06 15:15 | 43.66482 | 7.22127 | 26 ft | 13 kts | 134° |
| 2026-05-06 15:15 | 43.66412 | 7.22224 | 26 ft | 15 kts | 136° |
| 2026-05-06 15:15 | 43.66370 | 7.22353 | 26 ft | 16 kts | 63° |
| 2026-05-06 15:16 | 43.66450 | 7.22470 | 26 ft | 18 kts | 45° |
| 2026-05-06 15:16 | 43.66544 | 7.22595 | 26 ft | 20 kts | 43° |
| 2026-05-06 15:16 | 43.66587 | 7.22746 | 26 ft | 18 kts | 94° |
| 2026-05-06 15:16 | 43.66545 | 7.22821 | 26 ft | 4 kts | 216° |
| 2026-05-06 15:17 | 43.66538 | 7.22812 | 26 ft | 0 kts | 225° |
| 2026-05-06 15:17 | 43.66537 | 7.22812 | 26 ft | 0 kts | 225° |
| 2026-05-06 15:17 | 43.66535 | 7.22808 | 26 ft | 3 kts | 225° |
| 2026-05-06 15:17 | 43.66397 | 7.22618 | 26 ft | 61 kts | 224° |
| 2026-05-06 15:18 | 43.65947 | 7.21998 | 27 ft | 121 kts | 224° |
| 2026-05-06 15:18 | 43.65237 | 7.21026 | 190 ft | 152 kts | 223° |
| 2026-05-06 15:18 | 43.64497 | 7.20019 | 806 ft | 151 kts | 222° |
| 2026-05-06 15:18 | 43.63743 | 7.19000 | 1428 ft | 154 kts | 223° |
| 2026-05-06 15:19 | 43.62951 | 7.17914 | 1754 ft | 168 kts | 224° |
| 2026-05-06 15:19 | 43.62084 | 7.16722 | 2079 ft | 183 kts | 224° |
| 2026-05-06 15:19 | 43.61029 | 7.15615 | 2408 ft | 199 kts | 205° |
| 2026-05-06 15:19 | 43.59624 | 7.15376 | 2777 ft | 214 kts | 168° |
| 2026-05-06 15:20 | 43.58258 | 7.16248 | 3339 ft | 220 kts | 149° |
| 2026-05-06 15:20 | 43.56964 | 7.17433 | 3931 ft | 223 kts | 149° |
| 2026-05-06 15:20 | 43.55559 | 7.18378 | 4431 ft | 227 kts | 171° |
| 2026-05-06 15:20 | 43.54010 | 7.18261 | 5071 ft | 222 kts | 198° |
| 2026-05-06 15:21 | 43.52564 | 7.17556 | 5781 ft | 220 kts | 208° |
| 2026-05-06 15:21 | 43.51341 | 7.16334 | 6412 ft | 218 kts | 232° |
| 2026-05-06 15:21 | 43.50727 | 7.14463 | 7006 ft | 219 kts | 264° |
| 2026-05-06 15:21 | 43.50906 | 7.12370 | 7617 ft | 223 kts | 284° |
| 2026-05-06 15:22 | 43.51416 | 7.10325 | 8211 ft | 227 kts | 287° |
| 2026-05-06 15:22 | 43.51921 | 7.08252 | 8813 ft | 229 kts | 284° |
| 2026-05-06 15:22 | 43.52353 | 7.06134 | 9413 ft | 232 kts | 286° |
| 2026-05-06 15:22 | 43.53146 | 7.04187 | 9985 ft | 240 kts | 312° |
| 2026-05-06 15:23 | 43.54589 | 7.02889 | 10379 ft | 259 kts | 332° |
| 2026-05-06 15:23 | 43.56313 | 7.01886 | 10624 ft | 280 kts | 333° |
| 2026-05-06 15:23 | 43.58154 | 7.00736 | 10853 ft | 298 kts | 330° |
| 2026-05-06 15:23 | 43.60040 | 6.99400 | 11216 ft | 309 kts | 328° |
| 2026-05-06 15:24 | 43.61938 | 6.97998 | 11945 ft | 306 kts | 328° |
| 2026-05-06 15:24 | 43.63791 | 6.96637 | 12843 ft | 298 kts | 328° |
| 2026-05-06 15:24 | 43.65627 | 6.95306 | 13476 ft | 300 kts | 327° |
| 2026-05-06 15:24 | 43.67328 | 6.93664 | 13963 ft | 297 kts | 309° |
| 2026-05-06 15:25 | 43.68453 | 6.91324 | 14492 ft | 291 kts | 289° |
| 2026-05-06 15:25 | 43.69146 | 6.88737 | 15032 ft | 291 kts | 284° |
| 2026-05-06 15:25 | 43.69756 | 6.86027 | 15547 ft | 293 kts | 283° |
| 2026-05-06 15:25 | 43.70328 | 6.83344 | 16057 ft | 295 kts | 282° |
| 2026-05-06 15:26 | 43.70907 | 6.80606 | 16575 ft | 297 kts | 282° |
| 2026-05-06 15:26 | 43.71488 | 6.77859 | 17090 ft | 299 kts | 282° |
| 2026-05-06 15:26 | 43.72079 | 6.75092 | 17593 ft | 301 kts | 282° |
| 2026-05-06 15:26 | 43.72678 | 6.72306 | 18098 ft | 302 kts | 282° |
| 2026-05-06 15:27 | 43.73281 | 6.69513 | 18577 ft | 304 kts | 282° |
| 2026-05-06 15:27 | 43.73897 | 6.66701 | 19064 ft | 306 kts | 282° |
| 2026-05-06 15:27 | 43.74625 | 6.63915 | 19479 ft | 315 kts | 291° |
| 2026-05-06 15:27 | 43.75940 | 6.61375 | 19628 ft | 339 kts | 310° |
| 2026-05-06 15:28 | 43.77975 | 6.59503 | 19762 ft | 363 kts | 328° |
| 2026-05-06 15:28 | 43.80331 | 6.58060 | 19922 ft | 377 kts | 331° |
| 2026-05-06 15:28 | 43.82792 | 6.56658 | 20077 ft | 388 kts | 331° |
| 2026-05-06 15:28 | 43.85285 | 6.55189 | 20398 ft | 392 kts | 330° |
| 2026-05-06 15:29 | 43.86965 | 6.54138 | 20653 ft | 393 kts | 329° |
| 2026-05-06 15:29 | 43.89420 | 6.52519 | 21032 ft | 395 kts | 327° |
| 2026-05-06 15:29 | 43.91894 | 6.50846 | 21402 ft | 398 kts | 327° |
| 2026-05-06 15:29 | 43.94396 | 6.49169 | 21762 ft | 401 kts | 327° |
| 2026-05-06 15:30 | 43.96934 | 6.47498 | 22121 ft | 404 kts | 327° |
| 2026-05-06 15:30 | 43.99498 | 6.45836 | 22469 ft | 407 kts | 327° |
| 2026-05-06 15:30 | 44.02070 | 6.44168 | 22810 ft | 410 kts | 327° |
| 2026-05-06 15:30 | 44.04661 | 6.42474 | 23143 ft | 412 kts | 327° |
| 2026-05-06 15:31 | 44.06497 | 6.41267 | 23368 ft | 414 kts | 327° |
| 2026-05-06 15:31 | 44.09113 | 6.39543 | 23688 ft | 417 kts | 326° |
| 2026-05-06 15:31 | 44.11739 | 6.37812 | 23988 ft | 419 kts | 326° |
| 2026-05-06 15:32 | 44.17053 | 6.34307 | 24614 ft | 424 kts | 326° |
| 2026-05-06 15:32 | 44.19726 | 6.32548 | 24922 ft | 426 kts | 326° |
| 2026-05-06 15:32 | 44.22409 | 6.30781 | 25222 ft | 427 kts | 326° |
| 2026-05-06 15:32 | 44.25106 | 6.29002 | 25515 ft | 429 kts | 326° |
| 2026-05-06 15:33 | 44.27811 | 6.27210 | 25786 ft | 432 kts | 326° |
| 2026-05-06 15:33 | 44.30532 | 6.25408 | 26064 ft | 434 kts | 326° |
| 2026-05-06 15:33 | 44.33262 | 6.23597 | 26340 ft | 435 kts | 326° |
| 2026-05-06 15:33 | 44.36009 | 6.21773 | 26616 ft | 437 kts | 326° |
| 2026-05-06 15:34 | 44.38725 | 6.19969 | 26882 ft | 439 kts | 326° |
| 2026-05-06 15:34 | 44.41493 | 6.18128 | 27138 ft | 441 kts | 326° |
| 2026-05-06 15:34 | 44.44271 | 6.16275 | 27386 ft | 443 kts | 326° |
| 2026-05-06 15:34 | 44.47047 | 6.14425 | 27644 ft | 445 kts | 326° |
| 2026-05-06 15:35 | 44.49870 | 6.12544 | 27900 ft | 446 kts | 326° |
| 2026-05-06 15:35 | 44.52689 | 6.10664 | 28155 ft | 448 kts | 327° |
| 2026-05-06 15:35 | 44.55499 | 6.08788 | 28398 ft | 450 kts | 326° |
| 2026-05-06 15:35 | 44.58331 | 6.06891 | 28621 ft | 452 kts | 326° |
| 2026-05-06 15:36 | 44.61180 | 6.04979 | 28857 ft | 453 kts | 327° |
| 2026-05-06 15:36 | 44.64039 | 6.03060 | 29091 ft | 455 kts | 327° |
| 2026-05-06 15:36 | 44.66899 | 6.01140 | 29313 ft | 457 kts | 327° |
| 2026-05-06 15:36 | 44.69735 | 5.99233 | 29533 ft | 458 kts | 327° |
| 2026-05-06 15:37 | 44.72600 | 5.97303 | 29830 ft | 458 kts | 327° |
| 2026-05-06 15:37 | 44.75499 | 5.95350 | 30075 ft | 459 kts | 327° |
| 2026-05-06 15:37 | 44.78380 | 5.93408 | 30362 ft | 459 kts | 327° |
| 2026-05-06 15:37 | 44.81262 | 5.91467 | 30649 ft | 459 kts | 328° |
| 2026-05-06 15:38 | 44.84147 | 5.89521 | 30937 ft | 458 kts | 328° |
| 2026-05-06 15:38 | 44.87021 | 5.87577 | 31204 ft | 458 kts | 328° |
| 2026-05-06 15:38 | 44.89897 | 5.85626 | 31447 ft | 458 kts | 328° |
| 2026-05-06 15:38 | 44.92764 | 5.83682 | 31687 ft | 459 kts | 328° |
| 2026-05-06 15:39 | 44.95646 | 5.81726 | 31953 ft | 458 kts | 328° |
| 2026-05-06 15:39 | 44.98529 | 5.79765 | 32214 ft | 458 kts | 328° |
| 2026-05-06 15:39 | 45.01391 | 5.77814 | 32465 ft | 457 kts | 328° |
| 2026-05-06 15:39 | 45.04261 | 5.75858 | 32712 ft | 457 kts | 328° |
| 2026-05-06 15:40 | 45.07120 | 5.73905 | 32920 ft | 457 kts | 328° |
| 2026-05-06 15:40 | 45.09987 | 5.71945 | 33158 ft | 457 kts | 329° |
| 2026-05-06 15:40 | 45.12831 | 5.70006 | 33393 ft | 457 kts | 329° |
| 2026-05-06 15:40 | 45.15710 | 5.68040 | 33587 ft | 457 kts | 329° |
| 2026-05-06 15:41 | 45.18572 | 5.66079 | 33814 ft | 456 kts | 329° |
| 2026-05-06 15:41 | 45.21435 | 5.64113 | 34028 ft | 456 kts | 329° |
| 2026-05-06 15:41 | 45.24289 | 5.62151 | 34235 ft | 456 kts | 329° |
| 2026-05-06 15:41 | 45.27145 | 5.60185 | 34429 ft | 456 kts | 329° |
| 2026-05-06 15:42 | 45.29995 | 5.58220 | 34629 ft | 455 kts | 329° |
| 2026-05-06 15:42 | 45.32854 | 5.56253 | 34806 ft | 455 kts | 329° |
| 2026-05-06 15:42 | 45.35702 | 5.54290 | 34965 ft | 456 kts | 329° |
| 2026-05-06 15:42 | 45.38560 | 5.52317 | 35131 ft | 456 kts | 329° |
| 2026-05-06 15:43 | 45.41369 | 5.50377 | 35297 ft | 455 kts | 329° |
| 2026-05-06 15:43 | 45.44262 | 5.48374 | 35460 ft | 455 kts | 329° |
| 2026-05-06 15:43 | 45.47100 | 5.46407 | 35647 ft | 454 kts | 329° |
| 2026-05-06 15:43 | 45.49945 | 5.44432 | 35768 ft | 455 kts | 329° |
| 2026-05-06 15:44 | 45.52761 | 5.42476 | 35893 ft | 455 kts | 329° |
| 2026-05-06 15:44 | 45.55640 | 5.40475 | 35913 ft | 454 kts | 329° |
| 2026-05-06 15:44 | 45.61289 | 5.36545 | 35914 ft | 454 kts | 329° |
| 2026-05-06 15:45 | 45.66964 | 5.32581 | 35916 ft | 454 kts | 329° |
| 2026-05-06 15:45 | 45.72634 | 5.28613 | 35917 ft | 454 kts | 329° |
| 2026-05-06 15:46 | 45.78307 | 5.24639 | 35919 ft | 454 kts | 329° |
| 2026-05-06 15:46 | 45.83983 | 5.20653 | 35920 ft | 453 kts | 329° |
| 2026-05-06 15:47 | 45.89643 | 5.16662 | 35919 ft | 453 kts | 329° |
| 2026-05-06 15:47 | 45.95307 | 5.12665 | 35917 ft | 453 kts | 329° |
| 2026-05-06 15:48 | 46.00955 | 5.08669 | 35913 ft | 453 kts | 330° |
| 2026-05-06 15:48 | 46.06657 | 5.04620 | 35938 ft | 458 kts | 330° |
| 2026-05-06 15:49 | 46.12370 | 5.00561 | 35953 ft | 457 kts | 330° |
| 2026-05-06 15:49 | 46.18057 | 4.96517 | 35948 ft | 454 kts | 330° |
| 2026-05-06 15:50 | 46.23703 | 4.92481 | 35943 ft | 451 kts | 330° |
| 2026-05-06 15:50 | 46.29304 | 4.88468 | 35909 ft | 447 kts | 330° |
| 2026-05-06 15:51 | 46.34862 | 4.84482 | 35868 ft | 445 kts | 330° |
| 2026-05-06 15:51 | 46.40394 | 4.80503 | 35858 ft | 444 kts | 330° |
| 2026-05-06 15:52 | 46.45890 | 4.76539 | 35860 ft | 444 kts | 330° |
| 2026-05-06 15:52 | 46.51439 | 4.72533 | 35858 ft | 449 kts | 330° |
| 2026-05-06 15:53 | 46.57073 | 4.68450 | 35900 ft | 454 kts | 330° |
| 2026-05-06 15:53 | 46.62748 | 4.64336 | 35946 ft | 456 kts | 330° |
| 2026-05-06 15:54 | 46.68411 | 4.60219 | 35941 ft | 453 kts | 330° |
| 2026-05-06 15:54 | 46.74027 | 4.56127 | 35941 ft | 450 kts | 330° |
| 2026-05-06 15:55 | 46.79610 | 4.52043 | 35912 ft | 447 kts | 330° |
| 2026-05-06 15:55 | 46.85154 | 4.47980 | 35870 ft | 445 kts | 330° |
| 2026-05-06 15:56 | 46.90668 | 4.43932 | 35853 ft | 443 kts | 331° |
| 2026-05-06 15:56 | 46.96182 | 4.39871 | 35848 ft | 444 kts | 331° |
| 2026-05-06 15:57 | 47.01713 | 4.35791 | 35853 ft | 446 kts | 331° |
| 2026-05-06 15:57 | 47.07293 | 4.31663 | 35881 ft | 452 kts | 331° |
| 2026-05-06 15:58 | 47.12935 | 4.27488 | 35941 ft | 455 kts | 331° |
| 2026-05-06 15:58 | 47.18582 | 4.23292 | 35936 ft | 453 kts | 331° |
| 2026-05-06 15:59 | 47.24184 | 4.19118 | 35941 ft | 449 kts | 331° |
| 2026-05-06 15:59 | 47.29699 | 4.15001 | 35918 ft | 446 kts | 331° |
| 2026-05-06 16:00 | 47.35232 | 4.10865 | 35873 ft | 444 kts | 331° |
| 2026-05-06 16:00 | 47.40725 | 4.06739 | 35848 ft | 442 kts | 331° |
| 2026-05-06 16:01 | 47.46227 | 4.02602 | 35877 ft | 447 kts | 331° |
| 2026-05-06 16:01 | 47.51797 | 3.98406 | 35897 ft | 448 kts | 332° |
| 2026-05-06 16:02 | 47.57347 | 3.94216 | 35909 ft | 448 kts | 331° |
| 2026-05-06 16:02 | 47.62862 | 3.90038 | 35913 ft | 448 kts | 331° |
| 2026-05-06 16:03 | 47.68410 | 3.85827 | 35917 ft | 448 kts | 332° |
| 2026-05-06 16:03 | 47.73956 | 3.81611 | 35907 ft | 448 kts | 331° |
| 2026-05-06 16:04 | 47.79502 | 3.77381 | 35914 ft | 448 kts | 331° |
| 2026-05-06 16:04 | 47.85051 | 3.73136 | 35926 ft | 448 kts | 331° |
| 2026-05-06 16:05 | 47.90597 | 3.68886 | 35934 ft | 448 kts | 331° |
| 2026-05-06 16:05 | 47.96137 | 3.64632 | 35947 ft | 448 kts | 331° |
| 2026-05-06 16:06 | 48.00751 | 3.61080 | 35949 ft | 448 kts | 331° |
| 2026-05-06 16:06 | 48.06282 | 3.56811 | 35947 ft | 448 kts | 331° |
| 2026-05-06 16:07 | 48.11822 | 3.52526 | 35947 ft | 447 kts | 331° |
| 2026-05-06 16:07 | 48.17337 | 3.48249 | 35938 ft | 446 kts | 331° |
| 2026-05-06 16:08 | 48.22814 | 3.43990 | 35899 ft | 446 kts | 331° |
| 2026-05-06 16:08 | 48.28325 | 3.39696 | 35884 ft | 445 kts | 331° |
| 2026-05-06 16:09 | 48.33822 | 3.35405 | 35883 ft | 445 kts | 331° |
| 2026-05-06 16:09 | 48.39311 | 3.31105 | 35888 ft | 444 kts | 331° |
| 2026-05-06 16:10 | 48.44807 | 3.26791 | 35899 ft | 444 kts | 331° |
| 2026-05-06 16:10 | 48.50248 | 3.22510 | 35899 ft | 444 kts | 331° |
| 2026-05-06 16:11 | 48.55717 | 3.18196 | 35896 ft | 443 kts | 331° |
| 2026-05-06 16:11 | 48.61183 | 3.13875 | 35935 ft | 442 kts | 331° |
| 2026-05-06 16:12 | 48.66638 | 3.09552 | 35932 ft | 442 kts | 331° |
| 2026-05-06 16:12 | 48.71796 | 3.05449 | 35914 ft | 442 kts | 331° |
| 2026-05-06 16:13 | 48.77244 | 3.01110 | 35934 ft | 441 kts | 331° |
| 2026-05-06 16:13 | 48.82266 | 2.97100 | 35909 ft | 442 kts | 331° |
| 2026-05-06 16:14 | 48.87701 | 2.92752 | 35913 ft | 441 kts | 331° |
| 2026-05-06 16:14 | 48.93128 | 2.88397 | 35910 ft | 441 kts | 331° |
| 2026-05-06 16:15 | 48.98560 | 2.84029 | 35893 ft | 441 kts | 331° |
| 2026-05-06 16:15 | 49.03924 | 2.79707 | 35865 ft | 442 kts | 331° |
| 2026-05-06 16:16 | 49.09418 | 2.75266 | 35910 ft | 441 kts | 331° |
| 2026-05-06 16:16 | 49.14842 | 2.70867 | 35911 ft | 441 kts | 331° |
| 2026-05-06 16:17 | 49.20255 | 2.66474 | 35927 ft | 440 kts | 331° |
| 2026-05-06 16:17 | 49.25666 | 2.62066 | 35934 ft | 440 kts | 331° |
| 2026-05-06 16:18 | 49.31075 | 2.57651 | 35945 ft | 440 kts | 331° |
| 2026-05-06 16:18 | 49.36473 | 2.53232 | 35962 ft | 440 kts | 331° |
| 2026-05-06 16:19 | 49.41832 | 2.48833 | 35968 ft | 439 kts | 331° |
| 2026-05-06 16:19 | 49.47226 | 2.44396 | 35967 ft | 439 kts | 331° |
| 2026-05-06 16:20 | 49.52610 | 2.39959 | 35976 ft | 438 kts | 331° |
| 2026-05-06 16:20 | 49.57986 | 2.35514 | 35973 ft | 438 kts | 331° |
| 2026-05-06 16:21 | 49.63351 | 2.31067 | 35959 ft | 438 kts | 331° |
| 2026-05-06 16:21 | 49.68709 | 2.26618 | 35962 ft | 437 kts | 331° |
| 2026-05-06 16:22 | 49.74058 | 2.22161 | 35938 ft | 437 kts | 331° |
| 2026-05-06 16:22 | 49.79407 | 2.17693 | 35925 ft | 437 kts | 331° |
| 2026-05-06 16:23 | 49.84753 | 2.13217 | 35948 ft | 436 kts | 331° |
| 2026-05-06 16:23 | 49.90081 | 2.08746 | 35914 ft | 436 kts | 331° |
| 2026-05-06 16:24 | 49.95418 | 2.04258 | 35893 ft | 436 kts | 331° |
| 2026-05-06 16:24 | 50.00752 | 1.99756 | 35894 ft | 436 kts | 331° |
| 2026-05-06 16:25 | 50.06084 | 1.95248 | 35890 ft | 436 kts | 331° |
| 2026-05-06 16:25 | 50.11402 | 1.90738 | 35924 ft | 435 kts | 331° |
| 2026-05-06 16:26 | 50.16659 | 1.86144 | 35920 ft | 435 kts | 325° |
| 2026-05-06 16:26 | 50.21193 | 1.79927 | 35915 ft | 434 kts | 315° |
| 2026-05-06 16:27 | 50.25442 | 1.73200 | 35939 ft | 434 kts | 314° |
| 2026-05-06 16:27 | 50.29751 | 1.66579 | 35958 ft | 434 kts | 315° |
| 2026-05-06 16:28 | 50.34093 | 1.60023 | 35808 ft | 433 kts | 315° |
| 2026-05-06 16:28 | 50.36241 | 1.56732 | 35288 ft | 432 kts | 315° |
| 2026-05-06 16:28 | 50.38380 | 1.53428 | 34668 ft | 432 kts | 315° |
| 2026-05-06 16:29 | 50.40517 | 1.50119 | 34049 ft | 432 kts | 315° |
| 2026-05-06 16:29 | 50.42658 | 1.46813 | 33430 ft | 432 kts | 315° |
| 2026-05-06 16:29 | 50.44805 | 1.43506 | 32807 ft | 432 kts | 315° |
| 2026-05-06 16:29 | 50.46951 | 1.40200 | 32185 ft | 432 kts | 315° |
| 2026-05-06 16:30 | 50.49085 | 1.36887 | 31561 ft | 431 kts | 314° |
| 2026-05-06 16:30 | 50.50461 | 1.34619 | 31147 ft | 430 kts | 312° |
| 2026-05-06 16:30 | 50.53182 | 1.30019 | 30311 ft | 429 kts | 311° |
| 2026-05-06 16:30 | 50.55206 | 1.26560 | 29686 ft | 427 kts | 311° |
| 2026-05-06 16:31 | 50.57211 | 1.23135 | 29065 ft | 426 kts | 312° |
| 2026-05-06 16:31 | 50.59275 | 1.19797 | 28442 ft | 424 kts | 314° |
| 2026-05-06 16:31 | 50.61359 | 1.16510 | 27818 ft | 423 kts | 314° |
| 2026-05-06 16:31 | 50.63439 | 1.13257 | 27195 ft | 421 kts | 314° |
| 2026-05-06 16:32 | 50.65506 | 1.10018 | 26571 ft | 419 kts | 314° |
| 2026-05-06 16:32 | 50.67565 | 1.06766 | 25946 ft | 417 kts | 314° |
| 2026-05-06 16:32 | 50.69606 | 1.03526 | 25324 ft | 416 kts | 314° |
| 2026-05-06 16:32 | 50.71639 | 1.00288 | 24700 ft | 414 kts | 314° |
| 2026-05-06 16:33 | 50.73662 | 0.97066 | 24077 ft | 412 kts | 314° |
| 2026-05-06 16:33 | 50.75683 | 0.93847 | 23453 ft | 411 kts | 314° |
| 2026-05-06 16:33 | 50.77693 | 0.90649 | 22830 ft | 409 kts | 314° |
| 2026-05-06 16:34 | 50.81686 | 0.84282 | 21582 ft | 405 kts | 314° |
| 2026-05-06 16:34 | 50.83663 | 0.81118 | 20958 ft | 403 kts | 314° |
| 2026-05-06 16:34 | 50.85625 | 0.77974 | 20335 ft | 401 kts | 314° |
| 2026-05-06 16:34 | 50.87582 | 0.74834 | 19711 ft | 399 kts | 314° |
| 2026-05-06 16:35 | 50.89497 | 0.71754 | 19096 ft | 396 kts | 314° |
| 2026-05-06 16:35 | 50.91454 | 0.68607 | 18470 ft | 395 kts | 314° |
| 2026-05-06 16:35 | 50.93346 | 0.65563 | 17935 ft | 391 kts | 314° |
| 2026-05-06 16:35 | 50.95241 | 0.62515 | 17481 ft | 385 kts | 314° |
| 2026-05-06 16:36 | 50.97111 | 0.59499 | 17030 ft | 379 kts | 314° |
| 2026-05-06 16:36 | 50.98950 | 0.56529 | 16580 ft | 374 kts | 314° |
| 2026-05-06 16:36 | 51.00754 | 0.53606 | 16131 ft | 368 kts | 314° |
| 2026-05-06 16:36 | 51.02542 | 0.50708 | 15679 ft | 363 kts | 314° |
| 2026-05-06 16:37 | 51.04292 | 0.47870 | 15230 ft | 357 kts | 314° |
| 2026-05-06 16:37 | 51.06015 | 0.45073 | 14782 ft | 352 kts | 314° |
| 2026-05-06 16:37 | 51.07758 | 0.42326 | 14330 ft | 349 kts | 315° |
| 2026-05-06 16:37 | 51.09500 | 0.39666 | 13893 ft | 346 kts | 316° |
| 2026-05-06 16:38 | 51.11239 | 0.37031 | 13339 ft | 347 kts | 316° |
| 2026-05-06 16:38 | 51.13006 | 0.34353 | 12596 ft | 353 kts | 316° |
| 2026-05-06 16:38 | 51.14799 | 0.31618 | 11843 ft | 357 kts | 316° |
| 2026-05-06 16:38 | 51.16598 | 0.28862 | 11096 ft | 361 kts | 316° |
| 2026-05-06 16:39 | 51.18408 | 0.26085 | 10536 ft | 359 kts | 316° |
| 2026-05-06 16:39 | 51.20180 | 0.23371 | 10250 ft | 347 kts | 316° |
| 2026-05-06 16:39 | 51.21851 | 0.20812 | 10004 ft | 335 kts | 316° |
| 2026-05-06 16:39 | 51.23273 | 0.18634 | 9790 ft | 326 kts | 316° |
| 2026-05-06 16:40 | 51.24957 | 0.16051 | 9524 ft | 317 kts | 316° |
| 2026-05-06 16:40 | 51.26518 | 0.13648 | 9274 ft | 309 kts | 316° |
| 2026-05-06 16:40 | 51.28053 | 0.11280 | 9022 ft | 302 kts | 316° |
| 2026-05-06 16:40 | 51.29543 | 0.08977 | 8770 ft | 295 kts | 316° |
| 2026-05-06 16:41 | 51.31005 | 0.06713 | 8520 ft | 291 kts | 317° |
| 2026-05-06 16:41 | 51.32439 | 0.04439 | 8266 ft | 288 kts | 311° |
| 2026-05-06 16:41 | 51.33374 | 0.01677 | 8019 ft | 287 kts | 284° |
| 2026-05-06 16:41 | 51.33562 | -0.01060 | 8008 ft | 279 kts | 272° |
| 2026-05-06 16:42 | 51.33541 | -0.04149 | 8010 ft | 277 kts | 270° |
| 2026-05-06 16:42 | 51.33544 | -0.07218 | 8004 ft | 277 kts | 273° |
| 2026-05-06 16:42 | 51.33654 | -0.10293 | 8003 ft | 276 kts | 276° |
| 2026-05-06 16:42 | 51.33771 | -0.12366 | 8002 ft | 276 kts | 277° |
| 2026-05-06 16:43 | 51.34009 | -0.16407 | 7999 ft | 276 kts | 276° |
| 2026-05-06 16:43 | 51.34153 | -0.19474 | 7997 ft | 276 kts | 275° |
| 2026-05-06 16:43 | 51.34237 | -0.21545 | 7996 ft | 276 kts | 275° |
| 2026-05-06 16:43 | 51.34362 | -0.24628 | 7985 ft | 277 kts | 275° |
| 2026-05-06 16:44 | 51.34495 | -0.27671 | 7872 ft | 275 kts | 275° |
| 2026-05-06 16:44 | 51.34637 | -0.30711 | 7748 ft | 275 kts | 275° |
| 2026-05-06 16:44 | 51.34777 | -0.33760 | 7624 ft | 276 kts | 275° |
| 2026-05-06 16:44 | 51.34912 | -0.36814 | 7499 ft | 275 kts | 275° |
| 2026-05-06 16:45 | 51.35040 | -0.39873 | 7374 ft | 275 kts | 275° |
| 2026-05-06 16:45 | 51.35168 | -0.42922 | 7249 ft | 274 kts | 275° |
| 2026-05-06 16:45 | 51.35300 | -0.45960 | 7124 ft | 274 kts | 275° |
| 2026-05-06 16:45 | 51.35436 | -0.49004 | 7010 ft | 273 kts | 275° |
| 2026-05-06 16:46 | 51.35568 | -0.52043 | 7001 ft | 274 kts | 275° |
| 2026-05-06 16:46 | 51.35698 | -0.55079 | 7000 ft | 273 kts | 275° |
| 2026-05-06 16:46 | 51.35822 | -0.58036 | 6993 ft | 260 kts | 275° |
| 2026-05-06 16:46 | 51.35935 | -0.60818 | 6992 ft | 247 kts | 275° |
| 2026-05-06 16:47 | 51.36045 | -0.63554 | 6874 ft | 241 kts | 275° |
| 2026-05-06 16:47 | 51.36153 | -0.66184 | 6630 ft | 240 kts | 275° |
| 2026-05-06 16:47 | 51.36266 | -0.68844 | 6378 ft | 239 kts | 275° |
| 2026-05-06 16:47 | 51.36375 | -0.71496 | 6128 ft | 239 kts | 275° |
| 2026-05-06 16:48 | 51.36487 | -0.74177 | 5874 ft | 238 kts | 275° |
| 2026-05-06 16:48 | 51.36602 | -0.76785 | 5627 ft | 237 kts | 275° |
| 2026-05-06 16:48 | 51.36726 | -0.79420 | 5375 ft | 237 kts | 278° |
| 2026-05-06 16:48 | 51.37242 | -0.81879 | 5107 ft | 234 kts | 304° |
| 2026-05-06 16:49 | 51.38394 | -0.83647 | 4857 ft | 231 kts | 332° |
| 2026-05-06 16:49 | 51.39922 | -0.84366 | 4615 ft | 229 kts | 355° |
| 2026-05-06 16:49 | 51.41509 | -0.84508 | 4372 ft | 227 kts | 359° |
| 2026-05-06 16:49 | 51.43076 | -0.84548 | 4155 ft | 223 kts | 0° |
| 2026-05-06 16:50 | 51.44608 | -0.84393 | 3974 ft | 217 kts | 17° |
| 2026-05-06 16:50 | 51.45861 | -0.83241 | 3962 ft | 202 kts | 47° |
| 2026-05-06 16:50 | 51.46645 | -0.81488 | 4104 ft | 188 kts | 58° |
| 2026-05-06 16:50 | 51.47295 | -0.79685 | 4023 ft | 185 kts | 61° |
| 2026-05-06 16:51 | 51.47625 | -0.77716 | 3722 ft | 185 kts | 84° |
| 2026-05-06 16:51 | 51.47665 | -0.75658 | 3463 ft | 184 kts | 88° |
| 2026-05-06 16:51 | 51.47670 | -0.73626 | 3199 ft | 184 kts | 88° |
| 2026-05-06 16:51 | 51.47673 | -0.71581 | 2935 ft | 183 kts | 88° |
| 2026-05-06 16:52 | 51.47680 | -0.69557 | 2682 ft | 181 kts | 88° |
| 2026-05-06 16:52 | 51.47687 | -0.67544 | 2435 ft | 180 kts | 88° |
| 2026-05-06 16:52 | 51.47693 | -0.65577 | 2179 ft | 172 kts | 88° |
| 2026-05-06 16:52 | 51.47699 | -0.63711 | 1978 ft | 161 kts | 88° |
| 2026-05-06 16:53 | 51.47704 | -0.62005 | 1787 ft | 146 kts | 88° |
| 2026-05-06 16:53 | 51.47709 | -0.60413 | 1586 ft | 141 kts | 87° |
| 2026-05-06 16:53 | 51.47718 | -0.58843 | 1395 ft | 141 kts | 87° |
| 2026-05-06 16:53 | 51.47727 | -0.57282 | 1203 ft | 140 kts | 87° |
| 2026-05-06 16:54 | 51.47731 | -0.55716 | 1008 ft | 139 kts | 87° |
| 2026-05-06 16:54 | 51.47733 | -0.54185 | 830 ft | 139 kts | 87° |
| 2026-05-06 16:54 | 51.47764 | -0.52627 | 629 ft | 139 kts | 82° |
| 2026-05-06 16:54 | 51.47778 | -0.51086 | 450 ft | 136 kts | 89° |
| 2026-05-06 16:55 | 51.47754 | -0.49578 | 263 ft | 137 kts | 87° |
| 2026-05-06 16:55 | 51.47753 | -0.48031 | 121 ft | 137 kts | 88° |
| 2026-05-06 16:55 | 51.47760 | -0.46615 | 97 ft | 103 kts | 90° |
| 2026-05-06 16:55 | 51.47759 | -0.45882 | 97 ft | 47 kts | 89° |
| 2026-05-06 16:56 | 51.47752 | -0.45549 | 97 ft | 13 kts | 110° |
| 2026-05-06 16:56 | 51.47713 | -0.45478 | 97 ft | 5 kts | 153° |
| 2026-05-06 16:56 | 51.47671 | -0.45466 | 97 ft | 7 kts | 178° |
| 2026-05-06 16:56 | 51.47614 | -0.45468 | 97 ft | 9 kts | 188° |
| 2026-05-06 16:57 | 51.47593 | -0.45558 | 97 ft | 11 kts | 281° |
| 2026-05-06 16:57 | 51.47596 | -0.45689 | 97 ft | 13 kts | 269° |
| 2026-05-06 16:57 | 51.47595 | -0.45843 | 97 ft | 15 kts | 269° |
| 2026-05-06 16:57 | 51.47594 | -0.46023 | 97 ft | 17 kts | 270° |
| 2026-05-06 16:58 | 51.47594 | -0.46225 | 97 ft | 19 kts | 270° |
| 2026-05-06 16:58 | 51.47596 | -0.46451 | 97 ft | 21 kts | 268° |
| 2026-05-06 16:58 | 51.47592 | -0.46701 | 97 ft | 23 kts | 269° |
| 2026-05-06 16:58 | 51.47582 | -0.46973 | 97 ft | 25 kts | 269° |
| 2026-05-06 16:59 | 51.47581 | -0.47267 | 97 ft | 28 kts | 270° |
| 2026-05-06 16:59 | 51.47580 | -0.47588 | 97 ft | 30 kts | 269° |
| 2026-05-06 16:59 | 51.47575 | -0.47839 | 97 ft | 13 kts | 245° |
| 2026-05-06 16:59 | 51.47491 | -0.47875 | 97 ft | 14 kts | 179° |
| 2026-05-06 17:00 | 51.47384 | -0.47873 | 97 ft | 17 kts | 180° |
| 2026-05-06 17:00 | 51.47260 | -0.47872 | 97 ft | 19 kts | 180° |
| 2026-05-06 17:00 | 51.47120 | -0.47871 | 97 ft | 21 kts | 180° |
| 2026-05-06 17:00 | 51.46980 | -0.47870 | 97 ft | 14 kts | 180° |
| 2026-05-06 17:01 | 51.46922 | -0.47863 | 97 ft | 8 kts | 148° |
| 2026-05-06 17:01 | 51.46917 | -0.47800 | 97 ft | 7 kts | 88° |
| 2026-05-06 17:01 | 51.46917 | -0.47719 | 97 ft | 4 kts | 90° |
| 2026-05-06 17:01 | 51.46917 | -0.47716 | 97 ft | 0 kts | 90° |